Latest Weather Observations for Moomba Airport

IDS60801

Issued at 5:35 pm CST Monday 22 September 2014 (issued every 30 minutes, with the page automatically refreshed every 10 minutes)

About weather observations | Map of weather stations | Latest weather observations for SA | Other Formats
Station Details ID: 017123 Name: MOOMBA AIRPORT Lat: -28.10 Lon: 140.20 Height: 37.8 m
Data from the previous 72 hours. | See also: Recent months at Moomba Airport
Date/Time
CST
Temp
°C
App
Temp
°C
Dew
Point
Rel
Hum
%
Delta-T
°C
Wind Press
QNH
hPa
Press
MSL
hPa
Rain
since 9 am
mm
Dir
 
Spd
km/h
Gust
km/h
Spd
kts
Gust
kts
22/05:30pm 25.5 20.6 4.0 25 10.7 E 19 26 10 14 1017.7 1017.6 0.0
22/05:00pm 26.1 20.2 4.0 24 11.0 E 24 35 13 19 1017.5 1017.4 0.0
22/04:30pm 26.3 20.4 4.1 24 11.1 ESE 24 30 13 16 1017.3 1017.2 0.0
22/04:00pm 26.7 20.4 3.9 23 11.4 E 26 37 14 20 1017.2 1017.1 0.0
22/03:30pm 26.6 20.3 3.8 23 11.4 E 26 35 14 19 1017.3 1017.2 0.0
22/03:00pm 26.9 20.3 4.0 23 11.5 E 28 39 15 21 1017.6 1017.5 0.0
22/02:30pm 27.2 20.4 4.9 24 11.4 E 30 44 16 24 1017.8 1017.7 0.0
22/02:00pm 26.9 19.5 4.0 23 11.5 E 32 39 17 21 1018.1 1018.0 0.0
22/01:30pm 26.9 19.5 4.0 23 11.5 E 32 43 17 23 1018.7 1018.6 0.0
22/01:00pm 26.4 18.7 3.6 23 11.3 E 33 46 18 25 1019.1 1019.0 0.0
22/12:33pm 25.8 18.0 3.1 23 11.1 E 33 52 18 28 1019.8 1019.7 0.0
22/12:30pm 26.5 18.4 3.1 22 11.5 E 35 52 19 28 1019.8 1019.7 0.0
22/12:00pm 25.9 17.8 3.2 23 11.1 E 35 48 19 26 1020.4 1020.3 0.0
22/11:46am 26.1 16.8 2.7 22 11.4 E 41 65 22 35 1020.6 1020.5 0.0
22/11:30am 25.7 17.9 3.0 23 11.1 E 33 44 18 24 1021.0 1020.9 0.0
22/11:00am 25.7 17.3 3.6 24 10.9 E 37 46 20 25 1021.7 1021.6 0.0
22/10:30am 24.8 16.3 2.9 24 10.6 E 37 48 20 26 1022.1 1022.0 0.0
22/10:00am 23.6 14.8 3.5 27 9.8 E 39 50 21 27 1022.6 1022.5 0.0
22/09:41am 23.5 14.8 4.0 28 9.5 E 39 57 21 31 1022.7 1022.6 0.0
22/09:30am 23.4 15.9 4.4 29 9.4 E 33 44 18 24 1023.0 1023.0 0.0
22/09:00am 22.0 14.7 4.6 32 8.5 E 32 43 17 23 1022.9 1022.9 0.0
22/08:30am 20.5 13.1 4.9 36 7.6 E 33 43 18 23 1022.7 1022.6 0.0
22/08:00am 18.5 11.2 5.4 42 6.4 E 33 39 18 21 1022.8 1022.7 0.0
22/07:30am 16.7 10.8 3.7 42 6.0 E 24 33 13 18 1023.1 1023.1 0.0
22/07:00am 14.4 10.5 1.0 40 5.8 ESE 11 15 6 8 1023.3 1023.3 0.0
22/06:30am 12.7 8.5 -1.2 38 5.6 ESE 11 13 6 7 1023.0 1023.0 0.0
22/06:00am 12.4 7.6 -2.2 36 5.7 ESE 13 19 7 10 1022.6 1022.5 0.0
22/05:30am 13.0 7.4 -2.5 34 6.0 ESE 17 20 9 11 1022.3 1022.2 0.0
22/05:00am 13.5 7.3 -2.8 32 6.4 ESE 20 26 11 14 1021.9 1021.8 0.0
22/04:30am 14.2 8.2 -3.1 30 6.7 SE 19 24 10 13 1022.0 1021.9 0.0
22/04:00am 14.9 9.3 -3.0 29 7.1 SSE 17 22 9 12 1021.9 1021.8 0.0
22/03:30am 16.1 9.5 -2.9 27 7.6 SE 22 33 12 18 1021.9 1021.8 0.0
22/03:00am 15.5 9.5 -3.4 27 7.4 SE 19 26 10 14 1021.8 1021.7 0.0
22/02:30am 15.8 9.5 -3.6 26 7.6 SE 20 28 11 15 1022.0 1021.9 0.0
22/02:00am 16.1 9.9 -3.4 26 7.7 SE 20 28 11 15 1022.2 1022.1 0.0
22/01:30am 17.1 9.8 -3.1 25 8.1 SE 26 37 14 20 1022.4 1022.3 0.0
22/01:00am 16.5 10.5 -3.0 26 7.8 SSE 19 26 10 14 1022.7 1022.6 0.0
22/12:30am 18.5 11.2 -3.0 23 8.8 SE 26 37 14 20 1022.6 1022.5 0.0
22/12:00am 18.5 11.2 -3.0 23 8.8 SE 26 39 14 21 1022.9 1022.9 0.0
 
Date/Time
CST
Temp
°C
App
Temp
°C
Dew
Point
Rel
Hum
%
Delta-T
°C
Wind Press
QNH
hPa
Press
MSL
hPa
Rain
since 9 am
mm
Dir
 
Spd
km/h
Gust
km/h
Spd
kts
Gust
kts
21/11:30pm 18.4 12.3 -2.5 24 8.6 SSE 20 28 11 15 1023.0 1023.0 0.0
21/11:00pm 18.4 12.2 -3.1 23 8.8 SSE 20 28 11 15 1023.2 1023.2 0.0
21/10:30pm 18.1 12.0 -3.9 22 8.8 S 19 28 10 15 1023.3 1023.3 0.0
21/10:00pm 18.6 12.3 -4.1 21 9.1 SSE 20 28 11 15 1023.3 1023.3 0.0
21/09:30pm 19.0 12.8 -4.4 20 9.3 S 19 28 10 15 1023.5 1023.5 0.0
21/09:00pm 19.3 13.5 -4.2 20 9.4 S 17 24 9 13 1023.4 1023.4 0.0
21/08:30pm 19.6 14.2 -4.6 19 9.7 S 15 19 8 10 1023.2 1023.2 0.0
21/08:00pm 20.4 14.6 -4.7 18 10.1 S 17 22 9 12 1022.6 1022.5 0.0
21/07:30pm 21.6 15.7 -5.3 16 10.8 SSE 17 24 9 13 1022.3 1022.2 0.0
21/07:00pm 22.7 16.4 -4.4 16 11.3 SE 20 28 11 15 1021.9 1021.8 0.0
21/06:30pm 23.4 16.3 -4.7 15 11.6 SE 24 33 13 18 1021.6 1021.5 0.0
21/06:00pm 24.0 16.8 -5.1 14 12.0 SE 24 35 13 19 1021.3 1021.2 0.0
21/05:30pm 24.7 16.4 -4.6 14 12.3 SE 30 37 16 20 1020.9 1020.8 0.0
21/05:00pm 25.2 17.2 -6.2 12 12.9 SE 28 43 15 23 1020.8 1020.7 0.0
21/04:30pm 25.5 17.5 -6.0 12 13.0 SE 28 37 15 20 1020.6 1020.5 0.0
21/04:00pm 25.8 18.9 -5.7 12 13.1 SE 22 30 12 16 1020.8 1020.7 0.0
21/03:30pm 25.9 18.3 -5.6 12 13.1 SSE 26 35 14 19 1020.9 1020.8 0.0
21/03:00pm 25.8 18.6 -5.7 12 13.1 SE 24 37 13 20 1021.3 1021.2 0.0
21/02:30pm 26.2 18.1 -6.5 11 13.4 SSE 28 43 15 23 1021.4 1021.3 0.0
21/02:00pm 26.0 18.3 -6.7 11 13.4 SSE 26 39 14 21 1021.7 1021.6 0.0
21/01:30pm 25.1 17.0 -6.3 12 12.8 SE 28 39 15 21 1022.1 1022.0 0.0
21/01:00pm 25.4 18.4 -7.2 11 13.2 SE 22 37 12 20 1022.7 1022.6 0.0
21/12:30pm 25.4 17.9 -5.0 13 12.7 SE 26 39 14 21 1023.0 1023.0 0.0
21/12:00pm 25.4 19.0 -5.0 13 12.7 SE 20 32 11 17 1023.6 1023.6 0.0
21/11:30am 24.7 17.1 -5.5 13 12.5 ESE 26 37 14 20 1024.1 1024.1 0.0
21/11:00am 24.2 16.8 -4.0 15 12.0 ESE 26 33 14 18 1024.6 1024.5 0.0
21/10:30am 23.7 15.5 -4.4 15 11.7 ESE 30 41 16 22 1024.9 1024.8 0.0
21/10:00am 23.1 15.9 -1.8 19 10.9 SE 26 37 14 20 1025.2 1025.1 0.0
21/09:30am 21.3 13.8 -1.3 22 9.8 ESE 28 35 15 19 1025.3 1025.2 0.0
21/09:00am 20.2 12.7 -1.6 23 9.3 ESE 28 35 15 19 1025.5 1025.4 0.0
21/08:30am 19.6 12.2 -0.9 25 8.8 SE 28 37 15 20 1025.5 1025.4 0.0
21/08:00am 18.0 11.3 -1.3 27 8.2 SE 24 35 13 19 1025.2 1025.1 0.0
21/07:30am 15.9 9.1 -2.1 29 7.3 SE 24 33 13 18 1025.1 1025.0 0.0
21/07:00am 14.8 8.7 -2.6 30 6.9 SSE 20 35 11 19 1024.9 1024.8 0.0
21/06:30am 12.8 6.6 -3.5 32 6.2 SSE 20 28 11 15 1024.5 1024.4 0.0
21/06:00am 12.6 6.0 -3.6 32 6.1 SSE 22 28 12 15 1024.1 1024.1 0.0
21/05:30am 12.6 6.3 -3.6 32 6.1 SSE 20 28 11 15 1023.9 1023.9 0.0
21/05:00am 11.3 5.5 -4.8 32 5.9 S 17 24 9 13 1023.7 1023.7 0.0
21/04:30am 11.5 6.0 -5.0 31 6.0 S 15 22 8 12 1023.4 1023.4 0.0
21/04:00am 12.6 6.8 -4.9 29 6.5 S 17 20 9 11 1023.1 1023.1 0.0
21/03:30am 13.6 7.4 -5.0 27 6.9 SSE 19 30 10 16 1022.6 1022.5 0.0
21/03:00am 13.3 7.1 -4.8 28 6.7 S 19 28 10 15 1022.6 1022.5 0.0
21/02:30am 12.3 6.8 -5.2 29 6.4 S 15 19 8 10 1022.8 1022.7 0.0
21/02:00am 13.0 8.0 -4.6 29 6.6 S 13 17 7 9 1022.9 1022.9 0.0
21/01:30am 15.3 9.5 -4.6 25 7.6 S 17 26 9 14 1023.0 1023.0 0.0
21/01:00am 16.2 10.1 -3.8 25 7.9 SSE 19 28 10 15 1023.1 1023.1 0.0
21/12:30am 15.4 9.7 -4.0 26 7.5 S 17 22 9 12 1023.4 1023.4 0.0
21/12:00am 14.6 10.0 -4.2 27 7.2 S 11 17 6 9 1023.7 1023.7 0.0
 
Date/Time
CST
Temp
°C
App
Temp
°C
Dew
Point
Rel
Hum
%
Delta-T
°C
Wind Press
QNH
hPa
Press
MSL
hPa
Rain
since 9 am
mm
Dir
 
Spd
km/h
Gust
km/h
Spd
kts
Gust
kts
20/11:30pm 14.7 10.0 -4.6 26 7.3 S 11 17 6 9 1023.6 1023.6 0.0
20/11:00pm 16.0 11.0 -4.0 25 7.8 S 13 20 7 11 1023.5 1023.5 0.0
20/10:30pm 16.9 11.1 -4.3 23 8.3 S 17 22 9 12 1023.6 1023.6 0.0
20/10:00pm 17.3 11.6 -4.0 23 8.5 SSE 17 22 9 12 1023.6 1023.6 0.0
20/09:30pm 17.6 11.9 -3.7 23 8.5 S 17 20 9 11 1023.7 1023.7 0.0
20/09:00pm 17.9 12.6 -3.5 23 8.6 S 15 20 8 11 1023.5 1023.5 0.0
20/08:30pm 18.4 13.2 -3.1 23 8.8 SSE 15 22 8 12 1023.4 1023.4 0.0
20/08:00pm 19.1 13.5 -3.1 22 9.1 SSE 17 24 9 13 1023.1 1023.1 0.0
20/07:30pm 19.1 13.5 -3.1 22 9.1 SE 17 20 9 11 1022.8 1022.7 0.0
20/07:00pm 19.4 13.8 -2.8 22 9.2 SE 17 20 9 11 1022.4 1022.3 0.0
20/06:30pm 19.9 13.9 -3.0 21 9.5 SE 19 24 10 13 1022.0 1021.9 0.0
20/06:00pm 20.4 14.3 -2.6 21 9.6 SSE 20 28 11 15 1021.8 1021.7 0.0
20/05:30pm 20.5 14.3 -3.2 20 9.8 S 20 28 11 15 1021.7 1021.6 0.0
20/05:00pm 20.8 14.6 -3.0 20 10.0 S 20 28 11 15 1021.6 1021.5 0.0
20/04:30pm 21.2 16.0 -2.6 20 10.1 SE 15 22 8 12 1021.6 1021.5 0.0
20/04:00pm 21.1 15.0 -2.7 20 10.1 SE 20 28 11 15 1021.4 1021.3 0.0
20/03:30pm 21.2 15.3 -2.6 20 10.1 SE 19 30 10 16 1021.2 1021.1 0.0
20/03:00pm 21.7 15.7 -2.9 19 10.4 SSE 19 30 10 16 1021.3 1021.2 0.0
20/02:30pm 21.4 17.8 -1.8 21 10.0 SE 7 9 4 5 1021.6 1021.5 0.0
20/02:00pm 21.0 15.9 -2.1 21 9.9 E 15 20 8 11 1021.5 1021.4 0.0
20/01:30pm 20.7 15.6 -1.8 22 9.6 ESE 15 24 8 13 1022.0 1021.9 0.0
20/01:00pm 20.6 15.1 -1.8 22 9.6 SE 17 22 9 12 1022.5 1022.4 0.0
20/12:30pm 21.3 17.0 -1.3 22 9.8 SSE 11 22 6 12 1022.9 1022.9 0.0
20/12:00pm 21.3 17.4 -1.3 22 9.8 ENE 9 22 5 12 1023.5 1023.5 0.0
20/11:30am 20.4 16.1 -1.4 23 9.4 ENE 11 17 6 9 1024.0 1024.0 0.0
20/11:00am 19.8 15.2 -1.3 24 9.1 NE 13 17 7 9 1024.5 1024.4 0.0
20/10:30am 19.3 14.2 -1.7 24 8.9 ENE 15 20 8 11 1024.9 1024.8 0.0
20/10:00am 18.9 13.1 -1.5 25 8.7 ENE 19 22 10 12 1024.8 1024.7 0.0
20/09:30am 18.4 13.0 -1.4 26 8.3 ENE 17 22 9 12 1024.7 1024.6 0.0
20/09:00am 17.0 10.9 -2.1 27 7.8 ENE 20 24 11 13 1024.8 1024.7 0.0
20/08:30am 16.2 10.2 -1.8 29 7.4 E 20 24 11 13 1024.7 1024.6 0.0
20/08:00am 15.1 9.6 -2.3 30 7.0 E 17 20 9 11 1024.8 1024.7 0.0
20/07:30am 13.8 9.8 -2.6 32 6.4 E 9 13 5 7 1025.1 1025.0 0.0
20/07:00am 12.5 8.0 -2.9 34 6.0 E 11 13 6 7 1024.3 1024.2 0.0
20/06:30am 11.0 7.3 -3.1 37 5.3 ENE 7 9 4 5 1023.8 1023.8 0.0
20/06:00am 10.7 5.8 -3.4 37 5.3 ESE 13 15 7 8 1022.7 1022.6 0.0
20/05:30am 10.9 4.8 -3.6 36 5.4 E 19 24 10 13 1021.5 1021.4 0.0
20/05:00am 11.6 6.4 -2.6 37 5.5 ESE 15 19 8 10 1021.3 1021.2 0.0
20/04:30am 9.7 4.8 -3.6 39 4.9 E 13 13 7 7 1020.9 1020.8 0.0
20/04:00am 9.4 5.2 -4.2 38 4.9 E 9 11 5 6 1020.6 1020.5 0.0
20/03:30am 10.4 5.4 -4.0 36 5.3 ESE 13 15 7 8 1020.4 1020.3 0.0
20/03:00am 10.8 5.5 -3.7 36 5.4 ESE 15 15 8 8 1020.3 1020.2 0.0
20/02:30am 11.9 7.1 -2.3 37 5.5 ESE 13 15 7 8 1020.6 1020.5 0.0
20/02:00am 10.6 5.7 -3.5 37 5.3 ESE 13 13 7 7 1020.8 1020.7 0.0
20/01:30am 11.1 5.9 -3.0 37 5.3 E 15 17 8 9 1020.6 1020.5 0.0
20/01:00am 11.2 6.3 -3.7 35 5.6 ESE 13 13 7 7 1021.0 1020.9 0.0
20/12:30am 11.2 6.2 -4.1 34 5.6 ESE 13 13 7 7 1021.1 1021.0 0.0
20/12:00am 12.4 7.5 -3.4 33 6.0 ESE 13 13 7 7 1021.3 1021.2 0.0
 
Date/Time
CST
Temp
°C
App
Temp
°C
Dew
Point
Rel
Hum
%
Delta-T
°C
Wind Press
QNH
hPa
Press
MSL
hPa
Rain
since 9 am
mm
Dir
 
Spd
km/h
Gust
km/h
Spd
kts
Gust
kts
19/11:30pm 12.7 7.8 -3.5 32 6.2 E 13 15 7 8 1021.3 1021.2 0.0
19/11:00pm 14.8 10.5 -1.7 32 6.7 ESE 11 15 6 8 1021.3 1021.2 0.0
19/10:30pm 13.7 9.2 -3.5 30 6.6 ESE 11 13 6 7 1021.6 1021.5 0.0
19/10:00pm 16.4 11.7 -1.7 29 7.5 ESE 13 15 7 8 1021.7 1021.6 0.0
19/09:30pm 18.1 13.1 -1.2 27 8.2 SE 15 19 8 10 1021.6 1021.5 0.0
19/09:00pm 19.1 14.2 -0.8 26 8.6 SE 15 19 8 10 1021.7 1021.6 0.0
19/08:30pm 20.1 14.4 -0.5 25 9.0 SE 19 26 10 14 1021.4 1021.3 0.0
19/08:00pm 20.2 14.8 -1.0 24 9.2 SE 17 22 9 12 1021.0 1020.9 0.0
19/07:30pm 21.2 15.9 -0.7 23 9.6 SE 17 20 9 11 1020.8 1020.7 0.0
19/07:00pm 21.7 16.7 -0.9 22 10.0 SE 15 20 8 11 1020.4 1020.3 0.0
19/06:30pm 22.4 17.5 -0.3 22 10.2 SE 15 20 8 11 1020.0 1019.9 0.0
19/06:00pm 23.0 17.3 -0.5 21 10.5 SSE 19 24 10 13 1019.7 1019.6 0.0

Other Formats:

Comma delimited format used in spreadsheet applications
http://www.bom.gov.au/fwo/IDS60801/IDS60801.95481.axf

JavaScript Object Notation format (JSON) in row-major order
http://www.bom.gov.au/fwo/IDS60801/IDS60801.95481.json